Time,TemperatureF,DewpointF,PressureIn,WindDirection,WindDirectionDegrees,WindSpeedMPH,WindSpeedGustMPH,Humidity,HourlyPrecipIn,Conditions,Clouds,dailyrainin,SoftwareType,DateUTC
2013-05-08 00:00:00,57.0,55.0,30.15,WNW,294,0.0,0.0,93,0.00,,,0.00,meteohub,2013-05-08 04:00:00,
2013-05-08 00:01:00,57.0,55.0,30.15,WNW,294,0.0,0.0,93,0.00,,,0.00,meteohub,2013-05-08 04:01:00,
2013-05-08 00:03:00,57.0,55.0,30.15,WNW,294,0.0,0.0,93,0.00,,,0.00,meteohub,2013-05-08 04:03:00,
2013-05-08 00:08:00,57.0,55.0,30.14,WNW,294,0.0,0.0,93,0.00,,,0.00,meteohub,2013-05-08 04:08:00,
2013-05-08 00:13:00,57.0,55.0,30.14,WNW,294,0.0,0.0,93,0.00,,,0.00,meteohub,2013-05-08 04:13:00,
2013-05-08 00:19:00,57.0,55.0,30.14,WNW,294,0.0,0.0,93,0.00,,,0.00,meteohub,2013-05-08 04:19:00,
2013-05-08 00:24:00,57.0,55.0,30.14,WNW,294,0.0,0.0,93,0.00,,,0.00,meteohub,2013-05-08 04:24:00,
2013-05-08 00:29:00,57.0,55.0,30.14,WNW,294,0.0,0.0,93,0.00,,,0.00,meteohub,2013-05-08 04:29:00,
2013-05-08 00:34:00,57.2,55.2,30.14,WNW,294,0.0,0.0,93,0.00,,,0.00,meteohub,2013-05-08 04:34:00,
2013-05-08 00:39:00,57.2,55.2,30.14,WNW,294,0.0,0.0,93,0.00,,,0.00,meteohub,2013-05-08 04:39:00,
2013-05-08 00:44:00,57.4,55.4,30.14,WNW,294,0.0,0.0,93,0.00,,,0.00,meteohub,2013-05-08 04:44:00,
2013-05-08 00:49:00,57.2,55.2,30.14,WNW,294,0.0,0.0,93,0.00,,,0.00,meteohub,2013-05-08 04:49:00,
2013-05-08 00:54:00,57.2,55.2,30.13,WNW,294,0.0,0.0,93,0.00,,,0.00,meteohub,2013-05-08 04:54:00,
2013-05-08 01:00:00,57.2,55.2,30.13,WNW,294,0.0,0.0,93,0.00,,,0.00,meteohub,2013-05-08 05:00:00,
2013-05-08 01:05:00,57.2,55.2,30.13,WNW,294,0.0,0.0,93,0.00,,,0.00,meteohub,2013-05-08 05:05:00,
2013-05-08 01:10:00,57.2,55.2,30.13,WNW,294,0.0,0.0,93,0.00,,,0.00,meteohub,2013-05-08 05:10:00,
2013-05-08 01:15:00,57.0,55.0,30.13,WNW,294,0.0,0.0,93,0.00,,,0.00,meteohub,2013-05-08 05:15:00,
2013-05-08 01:20:00,57.0,55.0,30.13,WNW,294,0.0,0.0,93,0.00,,,0.00,meteohub,2013-05-08 05:20:00,
2013-05-08 01:25:00,56.8,54.9,30.12,WNW,294,0.0,0.0,93,0.00,,,0.00,meteohub,2013-05-08 05:25:00,
2013-05-08 01:30:00,56.8,54.9,30.12,WNW,294,0.0,0.0,93,0.00,,,0.00,meteohub,2013-05-08 05:30:00,
2013-05-08 01:36:00,56.7,54.7,30.12,WNW,294,0.0,0.0,93,0.00,,,0.00,meteohub,2013-05-08 05:36:00,
2013-05-08 01:41:00,56.5,54.5,30.12,WNW,294,0.0,0.0,93,0.00,,,0.00,meteohub,2013-05-08 05:41:00,
2013-05-08 01:46:00,56.3,54.3,30.12,WNW,294,0.0,0.0,93,0.00,,,0.00,meteohub,2013-05-08 05:46:00,
2013-05-08 01:51:00,56.1,54.5,30.12,WNW,294,0.0,0.0,94,0.00,,,0.00,meteohub,2013-05-08 05:51:00,
2013-05-08 01:56:00,55.9,54.3,30.11,WNW,294,0.0,0.0,94,0.00,,,0.00,meteohub,2013-05-08 05:56:00,
2013-05-08 02:01:00,55.9,54.3,30.11,WNW,294,0.0,0.0,94,0.00,,,0.00,meteohub,2013-05-08 06:01:00,
2013-05-08 02:07:00,55.9,54.3,30.11,WNW,294,0.0,0.0,94,0.00,,,0.00,meteohub,2013-05-08 06:07:00,
2013-05-08 02:12:00,55.8,54.1,30.11,WNW,294,0.0,0.0,94,0.00,,,0.00,meteohub,2013-05-08 06:12:00,
2013-05-08 02:17:00,55.8,54.3,30.12,WNW,294,0.0,0.0,95,0.00,,,0.00,meteohub,2013-05-08 06:17:00,
2013-05-08 02:22:00,55.6,54.0,30.12,WNW,294,0.0,0.0,94,0.00,,,0.00,meteohub,2013-05-08 06:22:00,
2013-05-08 02:27:00,55.4,54.0,30.12,WNW,294,0.0,0.0,95,0.00,,,0.00,meteohub,2013-05-08 06:27:00,
2013-05-08 02:32:00,55.8,54.7,30.12,WNW,294,0.0,0.0,96,0.00,,,0.00,meteohub,2013-05-08 06:32:00,
2013-05-08 02:37:00,56.1,55.0,30.12,WNW,294,0.0,0.0,96,0.00,,,0.00,meteohub,2013-05-08 06:37:00,
2013-05-08 02:42:00,56.3,55.2,30.12,WNW,294,0.0,0.0,96,0.00,,,0.00,meteohub,2013-05-08 06:42:00,
2013-05-08 02:47:00,56.3,55.2,30.12,WNW,294,0.0,0.0,96,0.00,,,0.00,meteohub,2013-05-08 06:47:00,
2013-05-08 02:52:00,56.3,55.2,30.11,WNW,294,0.0,0.0,96,0.00,,,0.00,meteohub,2013-05-08 06:52:00,
2013-05-08 02:57:00,56.1,55.0,30.11,WNW,294,0.0,0.0,96,0.00,,,0.00,meteohub,2013-05-08 06:57:00,
2013-05-08 03:02:00,56.1,55.0,30.11,WNW,294,0.0,0.0,96,0.00,,,0.00,meteohub,2013-05-08 07:02:00,
2013-05-08 03:07:00,56.1,55.0,30.11,WNW,294,0.0,0.0,96,0.00,,,0.00,meteohub,2013-05-08 07:07:00,
2013-05-08 03:12:00,56.1,55.0,30.11,WNW,294,0.0,0.0,96,0.00,,,0.00,meteohub,2013-05-08 07:12:00,
2013-05-08 03:17:00,56.1,55.0,30.11,WNW,294,0.0,0.0,96,0.00,,,0.00,meteohub,2013-05-08 07:17:00,
2013-05-08 03:22:00,56.1,55.0,30.11,WNW,294,0.0,0.0,96,0.00,,,0.00,meteohub,2013-05-08 07:22:00,
2013-05-08 03:27:00,55.9,54.9,30.11,WNW,294,0.0,0.0,96,0.00,,,0.00,meteohub,2013-05-08 07:27:00,
2013-05-08 03:32:00,55.9,54.9,30.10,WNW,294,0.0,0.0,96,0.00,,,0.00,meteohub,2013-05-08 07:32:00,
2013-05-08 03:37:00,55.9,54.9,30.11,WNW,294,0.0,0.0,96,0.00,,,0.00,meteohub,2013-05-08 07:37:00,
2013-05-08 03:42:00,55.9,54.9,30.10,WNW,294,0.0,0.0,96,0.00,,,0.00,meteohub,2013-05-08 07:42:00,
2013-05-08 03:47:00,55.9,54.9,30.10,WNW,294,0.0,0.0,96,0.00,,,0.00,meteohub,2013-05-08 07:47:00,
2013-05-08 03:52:00,55.8,54.7,30.11,WNW,294,0.0,0.0,96,0.00,,,0.00,meteohub,2013-05-08 07:52:00,
2013-05-08 03:57:00,55.8,54.7,30.10,WNW,294,0.0,0.0,96,0.00,,,0.00,meteohub,2013-05-08 07:57:00,
2013-05-08 04:02:00,55.6,54.5,30.10,WNW,294,0.0,0.0,96,0.00,,,0.00,meteohub,2013-05-08 08:02:00,
2013-05-08 04:07:00,55.2,54.1,30.10,WNW,294,0.0,0.0,96,0.00,,,0.00,meteohub,2013-05-08 08:07:00,
2013-05-08 04:12:00,55.2,54.1,30.09,WNW,294,0.0,0.0,96,0.00,,,0.00,meteohub,2013-05-08 08:12:00,
2013-05-08 04:17:00,55.0,54.0,30.09,WNW,294,0.0,0.0,96,0.00,,,0.00,meteohub,2013-05-08 08:17:00,
2013-05-08 04:22:00,55.0,54.1,30.10,WNW,294,0.0,0.0,97,0.00,,,0.00,meteohub,2013-05-08 08:22:00,
2013-05-08 04:27:00,55.0,54.1,30.10,WNW,294,0.0,0.0,97,0.00,,,0.00,meteohub,2013-05-08 08:27:00,
2013-05-08 04:32:00,55.0,54.1,30.10,WNW,294,0.0,0.0,97,0.00,,,0.00,meteohub,2013-05-08 08:32:00,
2013-05-08 04:37:00,55.0,54.1,30.10,WNW,294,0.0,0.0,97,0.00,,,0.00,meteohub,2013-05-08 08:37:00,
2013-05-08 04:42:00,54.9,54.0,30.10,WNW,294,0.0,0.0,97,0.00,,,0.00,meteohub,2013-05-08 08:42:00,
2013-05-08 04:47:00,54.9,53.8,30.09,WNW,294,0.0,0.0,96,0.00,,,0.00,meteohub,2013-05-08 08:47:00,
2013-05-08 04:52:00,54.7,53.6,30.09,WNW,294,0.0,0.0,96,0.00,,,0.00,meteohub,2013-05-08 08:52:00,
2013-05-08 04:57:00,54.5,53.6,30.09,WNW,294,0.0,0.0,97,0.00,,,0.00,meteohub,2013-05-08 08:57:00,
2013-05-08 05:02:00,54.5,53.6,30.09,WNW,294,0.0,0.0,97,0.00,,,0.00,meteohub,2013-05-08 09:02:00,
2013-05-08 05:07:00,54.5,53.6,30.09,WNW,294,0.0,0.0,97,0.00,,,0.00,meteohub,2013-05-08 09:07:00,
2013-05-08 05:12:00,54.5,53.6,30.10,WNW,294,0.0,0.0,97,0.00,,,0.00,meteohub,2013-05-08 09:12:00,
2013-05-08 05:17:00,54.3,53.4,30.10,WNW,294,0.0,0.0,97,0.00,,,0.00,meteohub,2013-05-08 09:17:00,
2013-05-08 05:22:00,54.3,53.4,30.10,WNW,294,0.0,0.0,97,0.00,,,0.00,meteohub,2013-05-08 09:22:00,
2013-05-08 05:27:00,54.1,53.2,30.10,WNW,294,0.0,0.0,97,0.00,,,0.00,meteohub,2013-05-08 09:27:00,
2013-05-08 05:32:00,54.0,53.1,30.11,WNW,294,0.0,0.0,97,0.00,,,0.00,meteohub,2013-05-08 09:32:00,
2013-05-08 05:37:00,54.0,53.1,30.10,WNW,294,0.0,0.0,97,0.00,,,0.00,meteohub,2013-05-08 09:37:00,
2013-05-08 05:42:00,54.0,53.1,30.10,WNW,294,0.0,0.0,97,0.00,,,0.00,meteohub,2013-05-08 09:42:00,
2013-05-08 05:47:00,54.0,53.1,30.11,WNW,294,0.0,0.0,97,0.00,,,0.00,meteohub,2013-05-08 09:47:00,
2013-05-08 05:52:00,54.0,53.1,30.11,WNW,294,0.0,0.0,97,0.00,,,0.00,meteohub,2013-05-08 09:52:00,
2013-05-08 05:57:00,54.0,53.1,30.12,WNW,294,0.0,0.0,97,0.00,,,0.00,meteohub,2013-05-08 09:57:00,
2013-05-08 06:02:00,54.1,53.6,30.12,WNW,294,0.0,0.0,98,0.00,,,0.00,meteohub,2013-05-08 10:02:00,
2013-05-08 06:07:00,54.1,53.6,30.12,WNW,294,0.0,0.0,98,0.00,,,0.00,meteohub,2013-05-08 10:07:00,
2013-05-08 06:12:00,54.3,53.8,30.12,WNW,294,0.0,0.0,98,0.00,,,0.00,meteohub,2013-05-08 10:12:00,
2013-05-08 06:17:00,54.7,54.1,30.11,WNW,294,0.0,0.0,98,0.00,,,0.00,meteohub,2013-05-08 10:17:00,
2013-05-08 06:22:00,55.0,54.5,30.11,WNW,294,0.0,0.0,98,0.00,,,0.00,meteohub,2013-05-08 10:22:00,
2013-05-08 06:27:00,55.6,55.0,30.12,WNW,294,0.0,0.0,98,0.00,,,0.00,meteohub,2013-05-08 10:27:00,
2013-05-08 06:32:00,56.1,55.6,30.12,WNW,294,0.0,0.0,98,0.00,,,0.00,meteohub,2013-05-08 10:32:00,
2013-05-08 06:37:00,56.7,56.1,30.13,WNW,294,0.0,0.0,98,0.00,,,0.00,meteohub,2013-05-08 10:37:00,
2013-05-08 06:42:00,57.0,56.5,30.12,WNW,294,0.0,0.0,98,0.00,,,0.00,meteohub,2013-05-08 10:42:00,
2013-05-08 06:47:00,57.4,56.8,30.13,WNW,294,0.0,0.0,98,0.00,,,0.00,meteohub,2013-05-08 10:47:00,
2013-05-08 06:52:00,57.7,57.2,30.13,WNW,294,0.0,0.0,98,0.00,,,0.00,meteohub,2013-05-08 10:52:00,
2013-05-08 06:57:00,58.1,57.6,30.13,WNW,294,0.0,0.0,98,0.00,,,0.00,meteohub,2013-05-08 10:57:00,
2013-05-08 07:02:00,58.5,57.6,30.14,WNW,294,0.0,0.0,97,0.00,,,0.00,meteohub,2013-05-08 11:02:00,
2013-05-08 07:07:00,58.6,57.6,30.13,WNW,294,0.0,0.0,96,0.00,,,0.00,meteohub,2013-05-08 11:07:00,
2013-05-08 07:12:00,58.8,57.7,30.13,WNW,294,0.0,0.0,96,0.00,,,0.00,meteohub,2013-05-08 11:12:00,
2013-05-08 07:17:00,58.8,57.4,30.13,WNW,294,0.0,0.0,95,0.00,,,0.00,meteohub,2013-05-08 11:17:00,
2013-05-08 07:22:00,59.2,57.7,30.13,WNW,294,0.0,0.0,95,0.00,,,0.00,meteohub,2013-05-08 11:22:00,
2013-05-08 07:27:00,59.4,57.9,30.13,WNW,294,0.0,0.0,95,0.00,,,0.00,meteohub,2013-05-08 11:27:00,
2013-05-08 07:32:00,59.5,58.1,30.13,WNW,294,0.0,0.0,95,0.00,,,0.00,meteohub,2013-05-08 11:32:00,
2013-05-08 07:37:00,59.7,57.9,30.13,WNW,294,0.0,0.0,94,0.00,,,0.00,meteohub,2013-05-08 11:37:00,
2013-05-08 07:42:00,60.1,58.3,30.13,WNW,294,0.0,0.0,94,0.00,,,0.00,meteohub,2013-05-08 11:42:00,
2013-05-08 07:47:00,60.3,58.3,30.13,WNW,294,0.0,0.0,93,0.00,,,0.00,meteohub,2013-05-08 11:47:00,
2013-05-08 07:52:00,60.6,58.6,30.13,WNW,294,0.0,0.0,93,0.00,,,0.00,meteohub,2013-05-08 11:52:00,
2013-05-08 07:57:00,61.0,59.0,30.13,WNW,294,0.0,0.0,93,0.00,,,0.00,meteohub,2013-05-08 11:57:00,
2013-05-08 08:02:00,61.2,59.2,30.13,WNW,294,0.0,0.0,93,0.00,,,0.00,meteohub,2013-05-08 12:02:00,
2013-05-08 08:07:00,61.3,59.0,30.12,WNW,294,0.0,0.0,92,0.00,,,0.00,meteohub,2013-05-08 12:07:00,
2013-05-08 08:12:00,61.5,59.2,30.13,WNW,294,0.0,0.0,92,0.00,,,0.00,meteohub,2013-05-08 12:12:00,
2013-05-08 08:17:00,62.1,59.7,30.13,WNW,294,0.0,0.0,92,0.00,,,0.00,meteohub,2013-05-08 12:17:00,
2013-05-08 08:22:00,62.4,60.1,30.13,WNW,294,0.0,0.0,92,0.00,,,0.00,meteohub,2013-05-08 12:22:00,
2013-05-08 08:27:00,62.8,59.7,30.13,WNW,294,0.0,0.0,90,0.00,,,0.00,meteohub,2013-05-08 12:27:00,
2013-05-08 08:32:00,62.8,59.7,30.13,WNW,294,0.0,0.0,90,0.00,,,0.00,meteohub,2013-05-08 12:32:00,
2013-05-08 08:37:00,62.8,60.1,30.13,WNW,294,0.0,0.0,91,0.00,,,0.00,meteohub,2013-05-08 12:37:00,
2013-05-08 08:42:00,62.8,60.1,30.13,WNW,294,0.0,0.0,91,0.00,,,0.00,meteohub,2013-05-08 12:42:00,
2013-05-08 08:47:00,62.8,60.8,30.12,WNW,294,0.0,0.0,93,0.00,,,0.00,meteohub,2013-05-08 12:47:00,
2013-05-08 08:52:00,62.8,60.8,30.13,WNW,294,0.0,0.0,93,0.00,,,0.00,meteohub,2013-05-08 12:52:00,
2013-05-08 08:57:00,62.8,60.8,30.12,WNW,294,0.0,0.0,93,0.00,,,0.00,meteohub,2013-05-08 12:57:00,
2013-05-08 09:02:00,62.8,60.4,30.12,WNW,294,0.0,0.0,92,0.00,,,0.00,meteohub,2013-05-08 13:02:00,
2013-05-08 09:07:00,63.0,60.6,30.12,WNW,294,0.0,0.0,92,0.00,,,0.00,meteohub,2013-05-08 13:07:00,
2013-05-08 09:12:00,63.1,61.2,30.12,WNW,294,0.0,0.0,93,0.00,,,0.00,meteohub,2013-05-08 13:12:00,
2013-05-08 09:17:00,63.7,61.3,30.12,WNW,294,0.0,0.0,92,0.00,,,0.00,meteohub,2013-05-08 13:17:00,
2013-05-08 09:22:00,63.7,61.3,30.12,WNW,294,0.0,0.0,92,0.00,,,0.00,meteohub,2013-05-08 13:22:00,
2013-05-08 09:27:00,64.6,61.3,30.12,North,-999,-999.0,0.0,89,0.00,,,0.00,meteohub,2013-05-08 13:27:00,
2013-05-08 09:32:00,64.8,61.2,30.12,WNW,294,0.0,0.0,88,0.00,,,0.00,meteohub,2013-05-08 13:32:00,
2013-05-08 09:37:00,64.9,61.3,30.12,WNW,294,0.0,0.0,88,0.00,,,0.00,meteohub,2013-05-08 13:37:00,
2013-05-08 09:42:00,64.9,61.0,30.12,WNW,294,0.0,0.0,87,0.00,,,0.00,meteohub,2013-05-08 13:42:00,
2013-05-08 09:47:00,64.9,61.0,30.12,WNW,294,0.0,0.0,87,0.00,,,0.00,meteohub,2013-05-08 13:47:00,
2013-05-08 09:52:00,64.9,61.0,30.12,WNW,294,0.0,0.0,87,0.00,,,0.00,meteohub,2013-05-08 13:52:00,
2013-05-08 09:57:00,64.9,61.0,30.12,WNW,294,0.0,0.0,87,0.00,,,0.00,meteohub,2013-05-08 13:57:00,
2013-05-08 10:02:00,64.9,61.0,30.12,WNW,294,0.0,0.0,87,0.00,,,0.00,meteohub,2013-05-08 14:02:00,
2013-05-08 10:07:00,64.8,60.8,30.12,WNW,294,0.0,0.0,87,0.00,,,0.00,meteohub,2013-05-08 14:07:00,
2013-05-08 10:12:00,64.8,60.8,30.12,WNW,294,0.0,0.0,87,0.00,,,0.00,meteohub,2013-05-08 14:12:00,
2013-05-08 10:17:00,64.8,60.8,30.12,WNW,294,0.0,0.0,87,0.00,,,0.00,meteohub,2013-05-08 14:17:00,
2013-05-08 10:22:00,64.8,60.8,30.12,WNW,294,0.0,0.0,87,0.00,,,0.00,meteohub,2013-05-08 14:22:00,
2013-05-08 10:27:00,64.8,60.8,30.12,WNW,294,0.0,0.0,87,0.00,,,0.00,meteohub,2013-05-08 14:27:00,
2013-05-08 10:32:00,64.4,60.4,30.11,WNW,294,0.0,0.0,87,0.00,,,0.00,meteohub,2013-05-08 14:32:00,
2013-05-08 10:37:00,64.2,60.3,30.12,WNW,294,0.0,0.0,87,0.00,,,0.00,meteohub,2013-05-08 14:37:00,
2013-05-08 10:42:00,64.2,60.3,30.11,WNW,294,0.0,0.0,87,0.00,,,0.00,meteohub,2013-05-08 14:42:00,
2013-05-08 10:47:00,64.0,60.1,30.11,WNW,294,0.0,0.0,87,0.00,,,0.00,meteohub,2013-05-08 14:47:00,
2013-05-08 10:52:00,64.0,60.4,30.12,WNW,294,0.0,0.0,88,0.00,,,0.00,meteohub,2013-05-08 14:52:00,
2013-05-08 10:57:00,63.9,60.6,30.12,WNW,294,0.0,0.0,89,0.00,,,0.00,meteohub,2013-05-08 14:57:00,
2013-05-08 11:02:00,63.9,60.6,30.12,WNW,294,0.0,0.0,89,0.00,,,0.00,meteohub,2013-05-08 15:02:00,
2013-05-08 11:07:00,63.7,60.6,30.11,WNW,294,0.0,0.0,90,0.00,,,0.00,meteohub,2013-05-08 15:07:00,
2013-05-08 11:12:00,63.3,60.6,30.11,WNW,294,0.0,0.0,91,0.00,,,0.00,meteohub,2013-05-08 15:12:00,
2013-05-08 11:17:00,63.3,60.6,30.11,WNW,294,0.0,0.0,91,0.00,,,0.00,meteohub,2013-05-08 15:17:00,
2013-05-08 11:22:00,63.1,60.8,30.10,WNW,294,0.0,0.0,92,0.00,,,0.00,meteohub,2013-05-08 15:22:00,
2013-05-08 11:27:00,63.1,60.8,30.09,WNW,294,0.0,0.0,92,0.00,,,0.00,meteohub,2013-05-08 15:27:00,
2013-05-08 11:32:00,63.0,61.0,30.10,WNW,294,0.0,0.0,93,0.00,,,0.00,meteohub,2013-05-08 15:32:00,
2013-05-08 11:37:00,63.0,61.2,30.10,WNW,294,0.0,0.0,94,0.00,,,0.00,meteohub,2013-05-08 15:37:00,
2013-05-08 11:42:00,63.0,61.0,30.09,WNW,294,0.0,0.0,93,0.00,,,0.00,meteohub,2013-05-08 15:42:00,
2013-05-08 11:47:00,63.1,61.2,30.09,WNW,294,0.0,0.0,93,0.00,,,0.00,meteohub,2013-05-08 15:47:00,
2013-05-08 11:52:00,63.3,61.5,30.09,WNW,294,0.0,0.0,94,0.00,,,0.00,meteohub,2013-05-08 15:52:00,
2013-05-08 11:57:00,63.9,62.4,30.09,WNW,294,0.0,0.0,95,0.00,,,0.00,meteohub,2013-05-08 15:57:00,
2013-05-08 12:02:00,63.9,61.9,30.09,WNW,294,0.0,0.0,93,0.00,,,0.00,meteohub,2013-05-08 16:02:00,
2013-05-08 12:07:00,64.0,62.1,30.09,WNW,294,0.0,0.0,93,0.00,,,0.00,meteohub,2013-05-08 16:07:00,
2013-05-08 12:12:00,64.6,62.2,30.08,WNW,294,0.0,0.0,92,0.00,,,0.00,meteohub,2013-05-08 16:12:00,
2013-05-08 12:17:00,65.3,63.1,30.08,WNW,294,0.0,0.0,93,0.00,,,0.00,meteohub,2013-05-08 16:17:00,
2013-05-08 12:22:00,66.0,63.3,30.08,WNW,294,0.0,0.0,91,0.00,,,0.00,meteohub,2013-05-08 16:22:00,
2013-05-08 12:27:00,66.4,63.0,30.08,WNW,294,0.0,0.0,89,0.00,,,0.00,meteohub,2013-05-08 16:27:00,
2013-05-08 12:32:00,66.4,62.8,30.07,WNW,294,0.0,0.0,88,0.00,,,0.00,meteohub,2013-05-08 16:32:00,
2013-05-08 12:37:00,66.0,62.4,30.07,WNW,294,0.0,0.0,88,0.00,,,0.00,meteohub,2013-05-08 16:37:00,
2013-05-08 12:42:00,65.8,62.4,30.08,WNW,294,0.0,0.0,89,0.00,,,0.00,meteohub,2013-05-08 16:42:00,
2013-05-08 12:47:00,65.8,62.4,30.08,WNW,294,0.0,0.0,89,0.00,,,0.00,meteohub,2013-05-08 16:47:00,
2013-05-08 12:52:00,65.5,62.2,30.08,WNW,294,0.0,0.0,89,0.00,,,0.00,meteohub,2013-05-08 16:52:00,
2013-05-08 12:57:00,65.1,61.9,30.07,WNW,294,0.0,0.0,89,0.00,,,0.00,meteohub,2013-05-08 16:57:00,
2013-05-08 13:02:00,65.1,61.9,30.07,WNW,294,0.0,0.0,89,0.00,,,0.00,meteohub,2013-05-08 17:02:00,
2013-05-08 13:07:00,65.3,61.7,30.07,WNW,294,0.0,0.0,88,0.00,,,0.00,meteohub,2013-05-08 17:07:00,
2013-05-08 13:12:00,64.9,61.3,30.07,WNW,294,0.0,0.0,88,0.00,,,0.00,meteohub,2013-05-08 17:12:00,
2013-05-08 13:17:00,64.2,60.6,30.07,WNW,294,0.0,0.0,88,0.00,,,0.00,meteohub,2013-05-08 17:17:00,
2013-05-08 13:22:00,63.5,60.3,30.07,WNW,294,0.0,0.0,89,0.00,,,0.00,meteohub,2013-05-08 17:22:00,
2013-05-08 13:27:00,62.6,59.5,30.07,WNW,294,0.0,0.0,90,0.00,,,0.00,meteohub,2013-05-08 17:27:00,
2013-05-08 13:32:00,61.9,59.2,30.07,WNW,294,0.0,0.0,91,0.00,,,0.00,meteohub,2013-05-08 17:32:00,
2013-05-08 13:37:00,61.3,59.0,30.07,WNW,294,0.0,0.0,92,0.00,,,0.00,meteohub,2013-05-08 17:37:00,
2013-05-08 13:42:00,61.2,59.2,30.06,WNW,294,0.0,0.0,93,0.00,,,0.00,meteohub,2013-05-08 17:42:00,
2013-05-08 13:47:00,60.8,59.0,30.06,WNW,294,0.0,0.0,94,0.00,,,0.00,meteohub,2013-05-08 17:47:00,
2013-05-08 13:52:00,60.6,59.2,30.06,WNW,294,0.0,0.0,95,0.00,,,0.00,meteohub,2013-05-08 17:52:00,
2013-05-08 13:57:00,60.4,59.0,30.06,WNW,294,0.0,0.0,95,0.00,,,0.00,meteohub,2013-05-08 17:57:00,
2013-05-08 14:02:00,60.3,59.2,30.06,WNW,294,0.0,0.0,96,0.00,,,0.00,meteohub,2013-05-08 18:02:00,
2013-05-08 14:07:00,59.9,58.8,30.06,WNW,294,0.0,0.0,96,0.00,,,0.00,meteohub,2013-05-08 18:07:00,
2013-05-08 14:12:00,59.7,58.6,30.06,WNW,294,0.0,0.0,96,0.00,,,0.00,meteohub,2013-05-08 18:12:00,
2013-05-08 14:17:00,59.7,58.6,30.06,WNW,294,0.0,0.0,96,0.00,,,0.00,meteohub,2013-05-08 18:17:00,
2013-05-08 14:22:00,59.7,58.8,30.06,WNW,294,0.0,0.0,97,0.00,,,0.00,meteohub,2013-05-08 18:22:00,
2013-05-08 14:27:00,59.7,58.8,30.06,WNW,294,0.0,0.0,97,0.00,,,0.00,meteohub,2013-05-08 18:27:00,
2013-05-08 14:32:00,59.5,58.6,30.05,WNW,294,0.0,0.0,97,0.00,,,0.00,meteohub,2013-05-08 18:32:00,
2013-05-08 14:37:00,59.5,58.6,30.06,WNW,294,0.0,0.0,97,0.00,,,0.00,meteohub,2013-05-08 18:37:00,
2013-05-08 14:42:00,59.5,58.6,30.06,WNW,294,0.0,0.0,97,0.00,,,0.00,meteohub,2013-05-08 18:42:00,
2013-05-08 14:47:00,59.5,58.6,30.06,WNW,294,0.0,0.0,97,0.00,,,0.00,meteohub,2013-05-08 18:47:00,
2013-05-08 14:52:00,59.5,58.6,30.06,WNW,294,0.0,0.0,97,0.00,,,0.00,meteohub,2013-05-08 18:52:00,
2013-05-08 14:57:00,59.5,58.6,30.05,WNW,294,0.0,0.0,97,0.00,,,0.00,meteohub,2013-05-08 18:57:00,
2013-05-08 15:02:00,59.5,59.0,30.05,WNW,294,0.0,0.0,98,0.00,,,0.00,meteohub,2013-05-08 19:02:00,
2013-05-08 15:07:00,59.5,59.0,30.05,WNW,294,0.0,0.0,98,0.00,,,0.00,meteohub,2013-05-08 19:07:00,
2013-05-08 15:12:00,59.5,59.0,30.05,WNW,294,0.0,0.0,98,0.00,,,0.00,meteohub,2013-05-08 19:12:00,
2013-05-08 15:17:00,59.5,59.0,30.05,WNW,294,0.0,0.0,98,0.00,,,0.00,meteohub,2013-05-08 19:17:00,
2013-05-08 15:22:00,59.5,59.0,30.05,WNW,294,0.0,0.0,98,0.00,,,0.00,meteohub,2013-05-08 19:22:00,
2013-05-08 15:27:00,59.5,59.0,30.05,WNW,294,0.0,0.0,98,0.00,,,0.00,meteohub,2013-05-08 19:27:00,
2013-05-08 15:32:00,59.5,59.0,30.05,WNW,294,0.0,0.0,98,0.00,,,0.00,meteohub,2013-05-08 19:32:00,
2013-05-08 15:37:00,59.5,59.0,30.05,WNW,294,0.0,0.0,98,0.00,,,0.00,meteohub,2013-05-08 19:37:00,
2013-05-08 15:42:00,59.5,59.0,30.05,WNW,294,0.0,0.0,98,0.00,,,0.00,meteohub,2013-05-08 19:42:00,
2013-05-08 15:47:00,59.5,59.0,30.05,WNW,294,0.0,0.0,98,0.00,,,0.00,meteohub,2013-05-08 19:47:00,
2013-05-08 15:52:00,59.5,58.6,30.05,WNW,294,0.0,0.0,97,0.00,,,0.00,meteohub,2013-05-08 19:52:00,
2013-05-08 15:57:00,59.4,58.5,30.05,WNW,294,0.0,0.0,97,0.00,,,0.00,meteohub,2013-05-08 19:57:00,
2013-05-08 16:02:00,59.4,58.5,30.05,WNW,294,0.0,0.0,97,0.00,,,0.00,meteohub,2013-05-08 20:02:00,
2013-05-08 16:07:00,59.2,58.3,30.06,WNW,294,0.0,0.0,97,0.00,,,0.00,meteohub,2013-05-08 20:07:00,
2013-05-08 16:12:00,59.2,58.3,30.06,WNW,294,0.0,0.0,97,0.00,,,0.00,meteohub,2013-05-08 20:12:00,
2013-05-08 16:17:00,59.0,58.1,30.06,WNW,294,0.0,0.0,97,0.00,,,0.00,meteohub,2013-05-08 20:17:00,
2013-05-08 16:22:00,58.8,57.9,30.06,WNW,294,0.0,0.0,97,0.00,,,0.00,meteohub,2013-05-08 20:22:00,
2013-05-08 16:28:00,58.6,57.7,30.06,WNW,294,0.0,0.0,97,0.00,,,0.00,meteohub,2013-05-08 20:28:00,
2013-05-08 16:33:00,58.6,57.7,30.05,WNW,294,0.0,0.0,97,0.00,,,0.00,meteohub,2013-05-08 20:33:00,
2013-05-08 16:38:00,58.6,57.7,30.05,WNW,294,0.0,0.0,97,0.00,,,0.00,meteohub,2013-05-08 20:38:00,
2013-05-08 16:43:00,58.6,57.7,30.06,WNW,294,0.0,0.0,97,0.00,,,0.00,meteohub,2013-05-08 20:43:00,
2013-05-08 16:48:00,58.5,57.6,30.05,WNW,294,0.0,0.0,97,0.00,,,0.00,meteohub,2013-05-08 20:48:00,
2013-05-08 16:53:00,58.5,57.6,30.05,WNW,294,0.0,0.0,97,0.00,,,0.00,meteohub,2013-05-08 20:53:00,
2013-05-08 16:58:00,58.3,57.4,30.05,WNW,294,0.0,0.0,97,0.00,,,0.00,meteohub,2013-05-08 20:58:00,
2013-05-08 17:04:00,58.3,57.4,30.05,WNW,294,0.0,0.0,97,0.00,,,0.00,meteohub,2013-05-08 21:04:00,
2013-05-08 17:09:00,58.1,57.2,30.06,WNW,294,0.0,0.0,97,0.00,,,0.00,meteohub,2013-05-08 21:09:00,
2013-05-08 17:14:00,57.9,57.0,30.05,WNW,294,0.0,0.0,97,0.00,,,0.00,meteohub,2013-05-08 21:14:00,
2013-05-08 17:19:00,57.9,57.0,30.05,WNW,294,0.0,0.0,97,0.00,,,0.00,meteohub,2013-05-08 21:19:00,
2013-05-08 17:24:00,57.9,57.0,30.05,WNW,294,0.0,0.0,97,0.00,,,0.00,meteohub,2013-05-08 21:24:00,
2013-05-08 17:29:00,57.7,56.8,30.04,WNW,294,0.0,0.0,97,0.00,,,0.00,meteohub,2013-05-08 21:29:00,
2013-05-08 17:35:00,57.7,57.2,30.04,WNW,294,0.0,0.0,98,0.00,,,0.00,meteohub,2013-05-08 21:35:00,
2013-05-08 17:40:00,57.7,56.8,30.04,WNW,294,0.0,0.0,97,0.00,,,0.00,meteohub,2013-05-08 21:40:00,
2013-05-08 17:45:00,57.7,56.8,30.04,WNW,294,0.0,0.0,97,0.00,,,0.00,meteohub,2013-05-08 21:45:00,
2013-05-08 17:50:00,57.7,56.8,30.04,WNW,294,0.0,0.0,97,0.00,,,0.00,meteohub,2013-05-08 21:50:00,
2013-05-08 17:55:00,57.7,57.2,30.04,WNW,294,0.0,0.0,98,0.00,,,0.00,meteohub,2013-05-08 21:55:00,
2013-05-08 18:00:00,57.7,57.2,30.04,WNW,294,0.0,0.0,98,0.00,,,0.00,meteohub,2013-05-08 22:00:00,
2013-05-08 18:05:00,57.7,57.2,30.04,WNW,294,0.0,0.0,98,0.00,,,0.00,meteohub,2013-05-08 22:05:00,
2013-05-08 18:11:00,57.7,57.2,30.04,WNW,294,0.0,0.0,98,0.00,,,0.00,meteohub,2013-05-08 22:11:00,
2013-05-08 18:16:00,57.7,57.2,30.03,WNW,294,0.0,0.0,98,0.00,,,0.00,meteohub,2013-05-08 22:16:00,
2013-05-08 18:21:00,57.6,56.7,30.03,WNW,294,0.0,0.0,97,0.00,,,0.00,meteohub,2013-05-08 22:21:00,
2013-05-08 18:26:00,57.6,56.7,30.03,WNW,294,0.0,0.0,97,0.00,,,0.00,meteohub,2013-05-08 22:26:00,
2013-05-08 18:31:00,57.6,57.0,30.03,WNW,294,0.0,0.0,98,0.00,,,0.00,meteohub,2013-05-08 22:31:00,
2013-05-08 18:36:00,57.6,56.7,30.03,WNW,294,0.0,0.0,97,0.00,,,0.00,meteohub,2013-05-08 22:36:00,
2013-05-08 18:41:00,57.6,56.7,30.03,WNW,294,0.0,0.0,97,0.00,,,0.00,meteohub,2013-05-08 22:41:00,
2013-05-08 18:47:00,57.6,57.0,30.03,WNW,294,0.0,0.0,98,0.00,,,0.00,meteohub,2013-05-08 22:47:00,
2013-05-08 18:52:00,57.6,56.7,30.03,WNW,294,0.0,0.0,97,0.00,,,0.00,meteohub,2013-05-08 22:52:00,
2013-05-08 18:57:00,57.6,56.7,30.04,WNW,294,0.0,0.0,97,0.00,,,0.00,meteohub,2013-05-08 22:57:00,
2013-05-08 19:02:00,57.6,57.0,30.03,WNW,294,0.0,0.0,98,0.00,,,0.00,meteohub,2013-05-08 23:02:00,
2013-05-08 19:07:00,57.6,57.0,30.04,WNW,294,0.0,0.0,98,0.00,,,0.00,meteohub,2013-05-08 23:07:00,
2013-05-08 19:12:00,57.6,57.0,30.04,WNW,294,0.0,0.0,98,0.00,,,0.00,meteohub,2013-05-08 23:12:00,
2013-05-08 19:17:00,57.6,57.0,30.04,WNW,294,0.0,0.0,98,0.00,,,0.00,meteohub,2013-05-08 23:17:00,
2013-05-08 19:22:00,57.6,56.7,30.04,WNW,294,0.0,0.0,97,0.00,,,0.00,meteohub,2013-05-08 23:22:00,
2013-05-08 19:27:00,57.6,56.7,30.04,WNW,294,0.0,0.0,97,0.00,,,0.00,meteohub,2013-05-08 23:27:00,
2013-05-08 19:32:00,57.6,56.7,30.04,WNW,294,0.0,0.0,97,0.00,,,0.00,meteohub,2013-05-08 23:32:00,
2013-05-08 19:37:00,57.6,57.0,30.04,WNW,294,0.0,0.0,98,0.00,,,0.00,meteohub,2013-05-08 23:37:00,
2013-05-08 19:42:00,57.4,56.8,30.04,WNW,294,0.0,0.0,98,0.00,,,0.00,meteohub,2013-05-08 23:42:00,
2013-05-08 19:47:00,57.4,56.8,30.04,WNW,294,0.0,0.0,98,0.00,,,0.00,meteohub,2013-05-08 23:47:00,
2013-05-08 19:52:00,57.4,56.8,30.04,WNW,294,0.0,0.0,98,0.00,,,0.00,meteohub,2013-05-08 23:52:00,
2013-05-08 19:57:00,57.4,56.8,30.04,WNW,294,0.0,0.0,98,0.00,,,0.00,meteohub,2013-05-08 23:57:00,
2013-05-08 20:02:00,57.4,56.8,30.04,WNW,294,0.0,0.0,98,0.00,,,0.00,meteohub,2013-05-09 00:02:00,
2013-05-08 20:07:00,57.2,56.7,30.04,WNW,294,0.0,0.0,98,0.00,,,0.00,meteohub,2013-05-09 00:07:00,
2013-05-08 20:12:00,57.0,56.5,30.04,WNW,294,0.0,0.0,98,0.00,,,0.00,meteohub,2013-05-09 00:12:00,
2013-05-08 20:17:00,57.0,56.5,30.05,WNW,294,0.0,0.0,98,0.00,,,0.00,meteohub,2013-05-09 00:17:00,
2013-05-08 20:22:00,56.8,56.3,30.04,WNW,294,0.0,0.0,98,0.00,,,0.00,meteohub,2013-05-09 00:22:00,
2013-05-08 20:27:00,56.8,56.3,30.04,WNW,294,0.0,0.0,98,0.00,,,0.00,meteohub,2013-05-09 00:27:00,
2013-05-08 20:32:00,56.7,56.1,30.04,WNW,294,0.0,0.0,98,0.00,,,0.00,meteohub,2013-05-09 00:32:00,
2013-05-08 20:37:00,56.7,56.1,30.04,WNW,294,0.0,0.0,98,0.00,,,0.00,meteohub,2013-05-09 00:37:00,
2013-05-08 20:42:00,56.7,56.1,30.05,WNW,294,0.0,0.0,98,0.00,,,0.00,meteohub,2013-05-09 00:42:00,
2013-05-08 20:47:00,56.7,56.1,30.05,WNW,294,0.0,0.0,98,0.00,,,0.00,meteohub,2013-05-09 00:47:00,
2013-05-08 20:52:00,56.7,56.1,30.05,WNW,294,0.0,0.0,98,0.00,,,0.00,meteohub,2013-05-09 00:52:00,
2013-05-08 20:57:00,56.7,56.1,30.04,WNW,294,0.0,0.0,98,0.00,,,0.00,meteohub,2013-05-09 00:57:00,
2013-05-08 21:02:00,56.5,55.9,30.04,WNW,294,0.0,0.0,98,0.00,,,0.00,meteohub,2013-05-09 01:02:00,
2013-05-08 21:07:00,56.5,55.9,30.04,WNW,294,0.0,0.0,98,0.00,,,0.00,meteohub,2013-05-09 01:07:00,
2013-05-08 21:12:00,56.5,55.9,30.05,WNW,294,0.0,0.0,98,0.00,,,0.00,meteohub,2013-05-09 01:12:00,
2013-05-08 21:17:00,56.5,55.9,30.05,WNW,294,0.0,0.0,98,0.00,,,0.00,meteohub,2013-05-09 01:17:00,
2013-05-08 21:22:00,56.5,55.9,30.05,WNW,294,0.0,0.0,98,0.00,,,0.00,meteohub,2013-05-09 01:22:00,
2013-05-08 21:27:00,56.5,55.9,30.05,WNW,294,0.0,0.0,98,0.00,,,0.00,meteohub,2013-05-09 01:27:00,
2013-05-08 21:32:00,56.3,55.8,30.05,WNW,294,0.0,0.0,98,0.00,,,0.00,meteohub,2013-05-09 01:32:00,
2013-05-08 21:37:00,56.3,55.8,30.05,WNW,294,0.0,0.0,98,0.00,,,0.00,meteohub,2013-05-09 01:37:00,
2013-05-08 21:42:00,56.3,55.8,30.06,WNW,294,0.0,0.0,98,0.00,,,0.00,meteohub,2013-05-09 01:42:00,
2013-05-08 21:47:00,56.1,55.6,30.05,WNW,294,0.0,0.0,98,0.00,,,0.00,meteohub,2013-05-09 01:47:00,
2013-05-08 21:52:00,56.1,55.6,30.06,WNW,294,0.0,0.0,98,0.00,,,0.00,meteohub,2013-05-09 01:52:00,
2013-05-08 21:57:00,56.1,55.6,30.06,WNW,294,0.0,0.0,98,0.00,,,0.00,meteohub,2013-05-09 01:57:00,
2013-05-08 22:02:00,56.1,55.8,30.06,WNW,294,0.0,0.0,99,0.00,,,0.00,meteohub,2013-05-09 02:02:00,
2013-05-08 22:07:00,56.1,55.8,30.06,WNW,294,0.0,0.0,99,0.00,,,0.00,meteohub,2013-05-09 02:07:00,
2013-05-08 22:12:00,56.1,55.8,30.06,WNW,294,0.0,0.0,99,0.00,,,0.00,meteohub,2013-05-09 02:12:00,
2013-05-08 22:17:00,55.9,55.6,30.06,WNW,294,0.0,0.0,99,0.00,,,0.00,meteohub,2013-05-09 02:17:00,
2013-05-08 22:22:00,56.1,55.6,30.06,WNW,294,0.0,0.0,98,0.00,,,0.00,meteohub,2013-05-09 02:22:00,
2013-05-08 22:27:00,55.9,55.4,30.06,WNW,294,0.0,0.0,98,0.00,,,0.00,meteohub,2013-05-09 02:27:00,
2013-05-08 22:32:00,55.9,55.4,30.06,WNW,294,0.0,0.0,98,0.00,,,0.00,meteohub,2013-05-09 02:32:00,
2013-05-08 22:37:00,55.9,55.4,30.06,WNW,294,0.0,0.0,98,0.00,,,0.00,meteohub,2013-05-09 02:37:00,
2013-05-08 22:42:00,55.9,55.4,30.06,WNW,294,0.0,0.0,98,0.00,,,0.00,meteohub,2013-05-09 02:42:00,
2013-05-08 22:47:00,55.9,55.4,30.06,WNW,294,0.0,0.0,98,0.00,,,0.00,meteohub,2013-05-09 02:47:00,
2013-05-08 22:52:00,55.8,55.2,30.06,WNW,294,0.0,0.0,98,0.00,,,0.00,meteohub,2013-05-09 02:52:00,
2013-05-08 22:57:00,55.8,55.2,30.05,WNW,294,0.0,0.0,98,0.00,,,0.00,meteohub,2013-05-09 02:57:00,
2013-05-08 23:02:00,55.8,55.4,30.05,WNW,294,0.0,0.0,99,0.00,,,0.00,meteohub,2013-05-09 03:02:00,
2013-05-08 23:07:00,55.8,55.4,30.05,WNW,294,0.0,0.0,99,0.00,,,0.00,meteohub,2013-05-09 03:07:00,
2013-05-08 23:12:00,55.6,55.2,30.05,WNW,294,0.0,0.0,99,0.00,,,0.00,meteohub,2013-05-09 03:12:00,
2013-05-08 23:17:00,55.6,55.2,30.05,WNW,294,0.0,0.0,99,0.00,,,0.00,meteohub,2013-05-09 03:17:00,
2013-05-08 23:22:00,55.6,55.2,30.05,WNW,294,0.0,0.0,99,0.00,,,0.00,meteohub,2013-05-09 03:22:00,
2013-05-08 23:27:00,55.6,55.2,30.04,WNW,294,0.0,0.0,99,0.00,,,0.00,meteohub,2013-05-09 03:27:00,
2013-05-08 23:32:00,55.6,55.2,30.05,WNW,294,0.0,0.0,99,0.00,,,0.00,meteohub,2013-05-09 03:32:00,
2013-05-08 23:37:00,55.4,54.9,30.04,WNW,294,0.0,0.0,98,0.00,,,0.00,meteohub,2013-05-09 03:37:00,
2013-05-08 23:42:00,55.2,54.9,30.04,WNW,294,0.0,0.0,99,0.00,,,0.00,meteohub,2013-05-09 03:42:00,
2013-05-08 23:47:00,55.2,54.9,30.04,WNW,294,0.0,0.0,99,0.00,,,0.00,meteohub,2013-05-09 03:47:00,
2013-05-08 23:52:00,55.2,54.9,30.04,WNW,294,0.0,0.0,99,0.00,,,0.00,meteohub,2013-05-09 03:52:00,
2013-05-08 23:57:00,55.0,54.7,30.04,WNW,294,0.0,0.0,99,0.00,,,0.00,meteohub,2013-05-09 03:57:00,